Details for Qantas at YSSY




Go Back


Latest METAR
Local Time

YSSY 241330Z 04006KT CAVOK 26/21 Q1003 FM1530 19012KT 9999 FEW010 BKN090

25/02/2018, 00:43:35

Description
Results
Qantas Logo
Number of Pilots based at YSSY
0 Pilots Based here
Number of Qantas Flights Departed from YSSY
6 Flights Departed
Number of Qantas Flights Arrived at YSSY
5 Flights Arrived
Number of Qantas Schedules Departing from YSSY
150 Schedules
Number of Qantas Schedules Arriving at YSSY
148 Schedules
Number of Qantas Schedules Departing from YSSY availible today
68 Schedules Today
Number of Qantas Schedules Arriving at YSSY availible today
69 Schedules Today
Average Landing Rate at YSSY
-233 fpm
Qantas Average Landing Rate at YSSY
-100 fpm
Total Fuel Purchased at YSSY by Qantas
28,297.36 kgs / 62,384.36 lbs

Pilots Based at YSSY


Pilot ID
Pilot Name
Pilot Rank
No. of Flights
No. of Flying Hours
There are no pilots assigned to this hub!   Will you be the first?
Content